createdAt,value
2022-10-17T00:01:21.625Z,6.70
2022-10-17T00:03:47.779Z,5.47
2022-10-17T00:06:15.057Z,7.18
2022-10-17T00:08:42.497Z,5.85
2022-10-17T00:11:14.169Z,5.75
2022-10-17T00:13:41.971Z,9.27
2022-10-17T00:16:08.815Z,6.50
2022-10-17T00:18:34.902Z,7.50
2022-10-17T00:21:00.987Z,9.20
2022-10-17T00:23:30.572Z,12.30
2022-10-17T00:26:01.039Z,5.15
2022-10-17T00:28:27.200Z,6.50
2022-10-17T00:30:56.872Z,5.85
2022-10-17T00:33:22.973Z,10.85
2022-10-17T00:35:49.060Z,6.03
2022-10-17T00:38:15.156Z,4.43
2022-10-17T00:40:41.248Z,6.70
2022-10-17T00:43:16.810Z,7.28
2022-10-17T00:45:42.882Z,5.50
2022-10-17T00:48:12.459Z,10.63
2022-10-17T00:50:42.002Z,5.35
2022-10-17T00:53:09.466Z,10.32
2022-10-17T00:55:42.364Z,7.55
2022-10-17T00:58:08.630Z,7.28
2022-10-17T01:00:34.728Z,4.75
2022-10-17T01:03:00.837Z,6.85
2022-10-17T01:05:26.996Z,5.00
2022-10-17T01:07:55.016Z,6.15
2022-10-17T01:13:11.632Z,4.60
2022-10-17T01:15:44.306Z,6.88
2022-10-17T01:18:22.645Z,9.82
2022-10-17T01:21:13.144Z,5.68
2022-10-17T01:23:58.372Z,4.82
2022-10-17T01:26:51.939Z,5.03
2022-10-17T01:29:33.027Z,6.07
2022-10-17T01:32:03.814Z,6.93
2022-10-17T01:34:47.152Z,5.00
2022-10-17T01:37:21.475Z,8.63
2022-10-17T01:40:03.139Z,7.80
2022-10-17T01:42:48.633Z,7.22
2022-10-17T01:45:31.956Z,6.05
2022-10-17T01:48:05.862Z,7.57
2022-10-17T01:50:37.936Z,4.93
2022-10-17T01:53:14.691Z,7.05
2022-10-17T01:55:44.293Z,6.05
2022-10-17T01:58:15.063Z,5.60
2022-10-17T02:00:45.319Z,6.05
2022-10-17T02:03:18.222Z,6.68
2022-10-17T02:05:45.721Z,7.68
2022-10-17T02:08:12.420Z,7.35
2022-10-17T02:10:53.742Z,7.57
2022-10-17T02:13:35.102Z,8.30
2022-10-17T02:16:16.159Z,8.35
2022-10-17T02:19:08.816Z,7.90
2022-10-17T02:21:46.527Z,6.75
2022-10-17T02:24:37.478Z,6.47
2022-10-17T02:27:17.182Z,5.05
2022-10-17T02:29:57.326Z,7.22
2022-10-17T02:32:46.656Z,10.43
2022-10-17T02:35:16.023Z,7.88
2022-10-17T02:37:45.432Z,8.18
2022-10-17T02:40:14.525Z,8.70
2022-10-17T02:42:43.871Z,7.47
2022-10-17T02:45:10.724Z,10.77
2022-10-17T02:47:49.562Z,9.57
2022-10-17T02:50:15.757Z,10.15
2022-10-17T02:52:58.055Z,11.15
2022-10-17T02:55:33.509Z,8.40
2022-10-17T03:00:29.852Z,10.50
2022-10-17T03:02:56.028Z,8.25
2022-10-17T03:05:24.906Z,9.32
2022-10-17T03:07:51.620Z,8.63
2022-10-17T03:10:18.548Z,10.65
2022-10-17T03:12:44.765Z,13.70
2022-10-17T03:15:12.509Z,11.75
2022-10-17T03:17:39.844Z,10.50
2022-10-17T03:20:07.750Z,13.70
2022-10-17T03:22:34.103Z,10.23
2022-10-17T03:25:02.365Z,11.02
2022-10-17T03:27:28.754Z,10.52
2022-10-17T03:29:55.592Z,8.95
2022-10-17T03:32:21.677Z,13.35
2022-10-17T03:34:48.022Z,8.95
2022-10-17T03:37:14.101Z,10.45
2022-10-17T03:39:41.356Z,9.27
2022-10-17T03:42:07.512Z,9.73
2022-10-17T03:44:33.634Z,10.88
2022-10-17T03:46:59.744Z,10.95
2022-10-17T03:49:25.870Z,11.40
2022-10-17T03:51:52.666Z,11.30
2022-10-17T03:54:18.956Z,9.52
2022-10-17T03:56:45.079Z,10.27
2022-10-17T03:59:15.302Z,9.88
2022-10-17T04:01:44.897Z,9.60
2022-10-17T04:04:12.187Z,12.32
2022-10-17T04:06:38.664Z,8.82
2022-10-17T04:09:07.119Z,10.88
2022-10-17T04:11:40.919Z,8.35
2022-10-17T04:14:07.454Z,8.85
2022-10-17T04:16:33.576Z,10.85
2022-10-17T04:19:04.186Z,8.93
2022-10-17T04:21:36.120Z,12.32
2022-10-17T04:24:05.993Z,10.05
2022-10-17T04:26:56.932Z,8.68
2022-10-17T04:29:26.970Z,8.52
2022-10-17T04:32:00.399Z,10.85
2022-10-17T04:34:34.911Z,10.20
2022-10-17T04:37:01.033Z,9.68
2022-10-17T04:39:27.343Z,10.40
2022-10-17T04:41:55.614Z,10.30
2022-10-17T04:44:21.972Z,12.38
2022-10-17T04:46:51.076Z,12.60
2022-10-17T04:49:17.225Z,13.07
2022-10-17T04:51:46.612Z,15.02
2022-10-17T04:54:22.274Z,15.98
2022-10-17T04:56:54.322Z,15.48
2022-10-17T04:59:20.531Z,15.63
2022-10-17T05:01:52.334Z,13.27
2022-10-17T05:04:22.364Z,16.27
2022-10-17T05:06:50.908Z,16.33
2022-10-17T05:09:33.222Z,16.58
2022-10-17T05:11:59.756Z,16.08
2022-10-17T05:14:26.698Z,16.08
2022-10-17T05:16:52.805Z,18.42
2022-10-17T05:19:19.308Z,20.45
2022-10-17T05:21:48.639Z,19.20
2022-10-17T05:24:15.261Z,20.60
2022-10-17T05:26:41.354Z,19.38
2022-10-17T05:29:08.227Z,16.77
2022-10-17T05:31:39.140Z,16.88
2022-10-17T05:34:09.066Z,17.35
2022-10-17T05:36:37.880Z,19.73
2022-10-17T05:39:05.187Z,18.45
2022-10-17T05:41:33.203Z,19.48
2022-10-17T05:44:01.800Z,19.80
2022-10-17T05:46:39.573Z,19.75
2022-10-17T05:49:19.411Z,20.50
2022-10-17T05:51:52.196Z,21.38
2022-10-17T05:54:18.450Z,20.20
2022-10-17T05:56:45.054Z,20.17
2022-10-17T05:59:11.275Z,20.13
2022-10-17T06:02:12.494Z,23.80
2022-10-17T06:04:38.709Z,23.08
2022-10-17T06:07:05.734Z,17.92
2022-10-17T06:09:32.972Z,20.25
2022-10-17T06:11:59.130Z,25.15
2022-10-17T06:14:25.246Z,23.00
2022-10-17T06:16:55.484Z,23.75
2022-10-17T06:19:21.611Z,24.23
2022-10-17T06:21:47.694Z,28.45
2022-10-17T06:24:18.996Z,26.58
2022-10-17T06:26:47.003Z,27.33
2022-10-17T06:29:15.000Z,29.70
2022-10-17T06:31:45.747Z,31.75
2022-10-17T06:34:11.843Z,30.30
2022-10-17T06:36:39.404Z,31.15
2022-10-17T06:39:05.990Z,31.95
2022-10-17T06:41:44.548Z,32.17
2022-10-17T06:44:11.658Z,28.13
2022-10-17T06:46:54.354Z,27.95
2022-10-17T06:49:21.694Z,26.98
2022-10-17T06:51:56.176Z,30.40
2022-10-17T06:54:30.507Z,29.88
2022-10-17T06:57:16.955Z,24.08
2022-10-17T07:00:06.515Z,29.00
2022-10-17T07:02:43.902Z,24.75
2022-10-17T07:05:10.139Z,24.98
2022-10-17T07:07:40.017Z,23.50
2022-10-17T07:10:09.444Z,23.10
2022-10-17T07:12:36.755Z,23.50
2022-10-17T07:15:05.009Z,22.17
2022-10-17T07:17:31.936Z,22.65
2022-10-17T07:19:58.313Z,25.15
2022-10-17T07:22:25.060Z,20.90
2022-10-17T07:24:54.523Z,22.33
2022-10-17T07:27:27.546Z,18.15
2022-10-17T07:29:53.928Z,20.48
2022-10-17T07:32:32.104Z,17.58
2022-10-17T07:34:59.025Z,19.85
2022-10-17T07:37:25.306Z,16.10
2022-10-17T07:39:56.563Z,14.77
2022-10-17T07:42:23.176Z,18.65
2022-10-17T07:44:49.862Z,18.63
2022-10-17T07:47:16.025Z,12.68
2022-10-17T07:49:44.206Z,12.48
2022-10-17T07:52:12.033Z,12.85
2022-10-17T07:54:38.396Z,11.82
2022-10-17T07:57:04.614Z,11.02
2022-10-17T07:59:30.695Z,12.88
2022-10-17T08:01:56.970Z,14.57
2022-10-17T08:04:23.722Z,10.40
2022-10-17T08:06:53.387Z,13.40
2022-10-17T08:09:22.607Z,11.80
2022-10-17T08:11:49.131Z,15.13
2022-10-17T08:14:16.832Z,10.85
2022-10-17T08:16:43.626Z,14.73
2022-10-17T08:19:11.517Z,11.32
2022-10-17T08:21:38.738Z,9.10
2022-10-17T08:24:05.156Z,10.55
2022-10-17T08:26:31.249Z,11.43
2022-10-17T08:28:57.690Z,10.20
2022-10-17T08:31:23.831Z,10.43
2022-10-17T08:33:50.430Z,12.25
2022-10-17T08:36:19.157Z,9.80
2022-10-17T08:38:47.980Z,10.90
2022-10-17T08:42:08.834Z,9.00
2022-10-17T08:44:48.166Z,9.05
2022-10-17T08:47:21.058Z,8.23
2022-10-17T08:49:54.024Z,12.50
2022-10-17T08:52:41.618Z,8.65
2022-10-17T08:57:48.460Z,10.30
2022-10-17T09:00:21.307Z,9.68
2022-10-17T09:03:09.831Z,12.32
2022-10-17T09:05:49.366Z,8.50
2022-10-17T09:08:53.055Z,10.73
2022-10-17T09:11:53.283Z,8.45
2022-10-17T09:14:41.143Z,7.75
2022-10-17T09:17:21.551Z,7.72
2022-10-17T09:20:03.264Z,12.27
2022-10-17T09:22:37.647Z,7.20
2022-10-17T09:25:10.813Z,10.57
2022-10-17T09:27:42.864Z,8.20
2022-10-17T09:30:44.158Z,9.55
2022-10-17T09:33:34.765Z,9.55
2022-10-17T09:36:13.193Z,11.68
2022-10-17T09:38:43.082Z,9.35
2022-10-17T09:41:42.987Z,7.47
2022-10-17T09:44:22.889Z,6.68
2022-10-17T13:59:22.870Z,10.63
2022-10-17T14:01:49.983Z,8.32
2022-10-17T14:04:20.112Z,12.23
2022-10-17T14:06:51.108Z,9.25
2022-10-17T14:09:28.546Z,8.65
2022-10-17T14:12:02.373Z,7.72
2022-10-17T14:14:32.175Z,8.75
2022-10-17T14:17:13.555Z,8.07
2022-10-17T14:19:39.842Z,8.90
2022-10-17T14:22:36.275Z,9.52
2022-10-17T14:25:03.934Z,14.00
2022-10-17T14:27:36.651Z,8.88
2022-10-17T14:33:22.008Z,8.68
2022-10-17T14:35:56.365Z,8.80
2022-10-17T14:38:23.481Z,7.72
2022-10-17T14:41:08.729Z,11.77
2022-10-17T14:43:42.703Z,9.10
2022-10-17T14:46:15.819Z,8.50
2022-10-17T14:48:42.362Z,8.60
2022-10-17T14:51:17.375Z,8.35
2022-10-17T14:56:25.853Z,8.60
2022-10-17T14:58:52.249Z,8.63
2022-10-17T15:01:19.063Z,8.30
2022-10-17T15:03:45.523Z,8.15
2022-10-17T15:06:20.587Z,10.00
2022-10-17T15:08:46.727Z,7.90
2022-10-17T15:11:12.844Z,8.05
2022-10-17T15:13:42.260Z,9.65
2022-10-17T15:16:34.970Z,10.55
2022-10-17T15:19:01.174Z,9.27
2022-10-17T15:21:39.298Z,9.52
2022-10-17T15:24:06.854Z,12.32
2022-10-17T15:26:34.300Z,10.88
2022-10-17T15:29:00.846Z,10.43
2022-10-17T15:31:29.258Z,12.70
2022-10-17T15:33:55.356Z,12.00
2022-10-17T15:36:28.963Z,8.82
2022-10-17T15:39:00.703Z,11.35
2022-10-17T15:41:29.026Z,8.43
2022-10-17T15:43:55.271Z,10.52
2022-10-17T15:46:25.273Z,8.98
2022-10-17T15:48:51.752Z,11.90
2022-10-17T15:51:18.400Z,11.57
2022-10-17T15:53:44.611Z,12.15
2022-10-17T15:56:22.954Z,15.18
2022-10-17T15:58:49.474Z,11.18
2022-10-17T16:01:24.402Z,9.35
2022-10-17T16:03:50.910Z,10.80
2022-10-17T16:06:21.126Z,9.30
2022-10-17T16:08:48.352Z,10.63
2022-10-17T16:11:26.412Z,9.68
2022-10-17T16:13:55.066Z,13.70
2022-10-17T16:16:22.548Z,16.27
2022-10-17T16:18:49.177Z,11.77
2022-10-17T16:21:16.765Z,9.50
2022-10-17T16:23:43.753Z,11.23
2022-10-17T16:26:10.057Z,11.27
2022-10-17T16:28:36.338Z,12.02
2022-10-17T16:31:02.585Z,12.30
2022-10-17T16:33:28.676Z,13.00
2022-10-17T16:35:54.787Z,14.07
2022-10-17T16:38:20.879Z,11.30
2022-10-17T16:40:46.968Z,10.30
2022-10-17T16:43:13.303Z,16.10
2022-10-17T16:45:40.012Z,12.68
2022-10-17T16:48:06.472Z,11.50
2022-10-17T16:50:35.619Z,10.80
2022-10-17T16:53:03.961Z,12.32
2022-10-17T16:55:30.052Z,12.75
2022-10-17T16:57:56.149Z,13.52
2022-10-17T17:00:22.320Z,16.60
2022-10-17T17:02:48.753Z,10.85
2022-10-17T17:05:15.576Z,10.93
2022-10-17T17:07:41.688Z,10.90
2022-10-17T17:10:08.176Z,10.25
2022-10-17T17:12:35.394Z,10.43
2022-10-17T17:15:02.033Z,11.27
2022-10-17T17:17:44.526Z,10.13
2022-10-17T17:20:14.350Z,13.45
2022-10-17T17:22:40.448Z,10.40
2022-10-17T17:25:06.775Z,12.40
2022-10-17T17:27:33.316Z,12.10
2022-10-17T17:29:59.543Z,11.10
2022-10-17T17:32:25.637Z,11.45
2022-10-17T17:34:51.745Z,10.75
2022-10-17T17:37:18.005Z,12.20
2022-10-17T17:39:44.314Z,12.95
2022-10-17T17:42:10.406Z,12.23
2022-10-17T17:44:36.513Z,16.02
2022-10-17T17:47:02.661Z,13.13
2022-10-17T17:49:28.761Z,11.02
2022-10-17T17:51:54.897Z,15.70
2022-10-17T17:54:21.005Z,14.60
2022-10-17T17:56:47.195Z,16.60
2022-10-17T17:59:13.688Z,21.77
2022-10-17T18:01:40.518Z,22.02
2022-10-17T18:04:08.935Z,13.75
2022-10-17T18:06:36.102Z,12.85
2022-10-17T18:09:02.284Z,14.25
2022-10-17T18:11:28.718Z,12.48
2022-10-17T18:13:59.855Z,12.43
2022-10-17T18:16:27.865Z,11.07
2022-10-17T18:18:54.124Z,13.57
2022-10-17T18:21:20.492Z,11.70
2022-10-17T18:23:48.068Z,17.17
2022-10-17T18:26:14.714Z,20.08
2022-10-17T18:31:36.196Z,14.43
2022-10-17T18:34:03.787Z,21.52
2022-10-17T18:36:31.231Z,15.98
2022-10-17T18:38:58.859Z,13.75
2022-10-17T18:41:26.797Z,18.83
2022-10-17T18:43:54.778Z,18.73
2022-10-17T18:46:25.919Z,19.85
2022-10-17T18:48:52.764Z,19.27
2022-10-17T18:51:21.440Z,23.83
2022-10-17T18:53:51.540Z,15.45
2022-10-17T18:56:19.028Z,14.85
2022-10-17T18:58:45.955Z,14.35
2022-10-17T19:01:15.621Z,14.27
2022-10-17T19:03:43.170Z,17.27
2022-10-17T19:06:11.325Z,19.67
2022-10-17T19:08:38.652Z,19.75
2022-10-17T19:11:10.651Z,18.67
2022-10-17T19:13:37.510Z,16.15
2022-10-17T19:16:08.680Z,17.98
2022-10-17T19:18:35.971Z,17.20
2022-10-17T19:21:08.054Z,19.73
2022-10-17T19:23:37.540Z,15.98
2022-10-17T19:26:05.687Z,15.93
2022-10-17T19:28:32.832Z,18.20
2022-10-17T19:30:59.020Z,15.32
2022-10-17T19:33:25.290Z,18.10
2022-10-17T19:35:56.319Z,17.52
2022-10-17T19:38:22.406Z,20.55
2022-10-17T19:40:48.599Z,17.80
2022-10-17T19:43:14.709Z,18.00
2022-10-17T19:45:40.814Z,18.90
2022-10-17T19:48:06.899Z,19.45
2022-10-17T19:50:34.148Z,18.30
2022-10-17T19:53:02.082Z,16.17
2022-10-17T19:55:28.285Z,17.80
2022-10-17T19:58:02.043Z,20.73
2022-10-17T20:00:28.423Z,20.08
2022-10-17T20:02:54.946Z,18.88
2022-10-17T20:05:23.703Z,19.55
2022-10-17T20:07:52.128Z,20.20
2022-10-17T20:10:19.003Z,18.55
2022-10-17T20:12:45.093Z,20.67
2022-10-17T20:15:11.229Z,21.58
2022-10-17T20:17:37.326Z,23.50
2022-10-17T20:20:08.579Z,22.27
2022-10-17T20:22:35.051Z,20.55
2022-10-17T20:25:01.146Z,21.80
2022-10-17T20:27:28.232Z,21.83
2022-10-17T20:29:54.341Z,24.55
2022-10-17T20:32:20.432Z,22.73
2022-10-17T20:34:46.529Z,24.42
2022-10-17T20:37:12.639Z,27.75
2022-10-17T20:39:39.104Z,24.55
2022-10-17T20:42:05.196Z,24.90
2022-10-17T20:44:31.306Z,23.42
2022-10-17T20:47:02.180Z,24.95
2022-10-17T20:49:30.870Z,23.83
2022-10-17T20:51:57.114Z,24.48
2022-10-17T20:54:23.371Z,24.77
2022-10-17T20:56:49.940Z,25.92
2022-10-17T20:59:17.311Z,25.63
2022-10-17T21:01:45.177Z,28.13
2022-10-17T21:04:40.502Z,28.23
2022-10-17T21:06:57.873Z,27.42
2022-10-17T21:09:24.258Z,26.42
2022-10-17T21:11:54.293Z,28.20
2022-10-17T21:14:21.164Z,24.15
2022-10-17T21:16:47.950Z,26.50
2022-10-17T21:19:15.020Z,24.63
2022-10-17T21:21:43.509Z,28.20
2022-10-17T21:24:14.600Z,24.85
2022-10-17T21:26:42.536Z,28.77
2022-10-17T21:29:09.846Z,28.77
2022-10-17T21:31:37.866Z,27.50
2022-10-17T21:34:09.186Z,28.52
2022-10-17T21:36:35.563Z,27.88
2022-10-17T21:39:01.930Z,27.08
2022-10-17T21:41:29.511Z,28.58
2022-10-17T21:43:59.488Z,24.17
2022-10-17T21:46:26.267Z,28.25
2022-10-17T21:48:52.897Z,26.45
2022-10-17T21:51:21.892Z,26.95
2022-10-17T21:53:48.346Z,25.48
2022-10-17T21:56:17.449Z,27.48
2022-10-17T21:58:44.116Z,24.05
2022-10-17T22:01:13.436Z,29.38
2022-10-17T22:03:45.694Z,24.92
2022-10-17T22:09:01.903Z,24.83
2022-10-17T22:11:30.563Z,27.75
2022-10-17T22:14:02.126Z,27.15
2022-10-17T22:16:28.779Z,27.27
2022-10-17T22:19:00.515Z,27.50
2022-10-17T22:21:29.418Z,31.30
2022-10-17T22:24:01.973Z,29.25
2022-10-17T22:26:29.472Z,27.67
2022-10-17T22:28:56.326Z,23.65
2022-10-17T22:31:22.743Z,27.55
2022-10-17T22:33:49.222Z,23.98
2022-10-17T22:36:15.337Z,25.85
2022-10-17T22:38:41.526Z,26.90
2022-10-17T22:41:08.760Z,23.73
2022-10-17T22:43:35.111Z,24.38
2022-10-17T22:46:03.700Z,23.58
2022-10-17T22:48:30.218Z,27.55
2022-10-17T22:50:57.967Z,26.95
2022-10-17T22:53:26.250Z,25.15
2022-10-17T22:56:09.705Z,26.98
2022-10-17T22:58:36.344Z,26.85
2022-10-17T23:01:03.363Z,23.63
2022-10-17T23:03:30.597Z,27.25
2022-10-17T23:05:56.895Z,23.65
2022-10-17T23:08:23.931Z,23.73
2022-10-17T23:10:50.112Z,25.10
2022-10-17T23:13:16.739Z,26.10
2022-10-17T23:15:43.434Z,24.98
2022-10-17T23:18:10.099Z,24.58
2022-10-17T23:20:37.216Z,24.40
2022-10-17T23:23:03.590Z,27.05
2022-10-17T23:25:29.688Z,25.63
2022-10-17T23:27:55.789Z,25.83
2022-10-17T23:30:22.017Z,24.23
2022-10-17T23:32:48.107Z,24.50
2022-10-17T23:35:14.338Z,26.55
2022-10-17T23:37:40.436Z,23.10
2022-10-17T23:40:07.782Z,23.70
2022-10-17T23:42:33.866Z,25.30
2022-10-17T23:45:00.063Z,25.60
2022-10-17T23:47:26.243Z,23.02
2022-10-17T23:49:52.347Z,23.23
2022-10-17T23:52:18.483Z,25.13
2022-10-17T23:54:44.671Z,21.80
2022-10-17T23:57:10.829Z,26.83
2022-10-17T23:59:36.996Z,25.48
